TAY25Q EBLG-LFPG
Flight info
| Callsign | TAY25Q |
|---|---|
| Flight time | 0h 52m |
| Altitude | 35000 |
| Route | CIV UY50 DELOM DCT MOPIL |
| Aircraft | B738/M-SDE2E3FGHIRWXY/LB1 |
Departure
| Time | 2026-05-05 15:21 |
|---|---|
| Airport | Liège Airport (EBLG) |
Arrival
| Time | 2026-05-05 16:14 |
|---|---|
| Airport | Charles de Gaulle International Airport (LFPG) |
| Time | Latitude | Longitude | Altitude | Speed | Heading |
|---|---|---|---|---|---|
| 2026-05-05 15:05 | 50.63525 | 5.42809 | 638 ft | 0 kts | 340° |
| 2026-05-05 15:15 | 50.63504 | 5.42821 | 638 ft | 4 kts | 337° |
| 2026-05-05 15:15 | 50.63479 | 5.42839 | 638 ft | 4 kts | 333° |
| 2026-05-05 15:15 | 50.63456 | 5.42859 | 638 ft | 4 kts | 325° |
| 2026-05-05 15:16 | 50.63436 | 5.42886 | 638 ft | 4 kts | 303° |
| 2026-05-05 15:16 | 50.63429 | 5.42915 | 638 ft | 1 kts | 250° |
| 2026-05-05 15:16 | 50.63430 | 5.42916 | 638 ft | 0 kts | 250° |
| 2026-05-05 15:18 | 50.63429 | 5.42914 | 638 ft | 1 kts | 250° |
| 2026-05-05 15:18 | 50.63422 | 5.42883 | 644 ft | 6 kts | 250° |
| 2026-05-05 15:19 | 50.63402 | 5.42795 | 641 ft | 11 kts | 250° |
| 2026-05-05 15:19 | 50.63340 | 5.42702 | 640 ft | 16 kts | 167° |
| 2026-05-05 15:19 | 50.63256 | 5.42818 | 643 ft | 12 kts | 135° |
| 2026-05-05 15:19 | 50.63178 | 5.42905 | 641 ft | 15 kts | 155° |
| 2026-05-05 15:20 | 50.63073 | 5.42950 | 645 ft | 17 kts | 173° |
| 2026-05-05 15:20 | 50.62965 | 5.43010 | 659 ft | 16 kts | 139° |
| 2026-05-05 15:20 | 50.62931 | 5.43119 | 659 ft | 9 kts | 66° |
| 2026-05-05 15:20 | 50.62942 | 5.43143 | 659 ft | 6 kts | 50° |
| 2026-05-05 15:21 | 50.63147 | 5.43469 | 651 ft | 79 kts | 45° |
| 2026-05-05 15:21 | 50.63700 | 5.44341 | 626 ft | 143 kts | 44° |
| 2026-05-05 15:21 | 50.64474 | 5.45563 | 1053 ft | 159 kts | 44° |
| 2026-05-05 15:21 | 50.65242 | 5.46802 | 1891 ft | 162 kts | 46° |
| 2026-05-05 15:22 | 50.66049 | 5.48091 | 2620 ft | 167 kts | 45° |
| 2026-05-05 15:22 | 50.66880 | 5.49403 | 3361 ft | 170 kts | 45° |
| 2026-05-05 15:22 | 50.67719 | 5.50736 | 4096 ft | 172 kts | 45° |
| 2026-05-05 15:22 | 50.68569 | 5.52089 | 4784 ft | 175 kts | 45° |
| 2026-05-05 15:23 | 50.69136 | 5.52992 | 5227 ft | 178 kts | 46° |
| 2026-05-05 15:23 | 50.70076 | 5.54484 | 5491 ft | 204 kts | 45° |
| 2026-05-05 15:23 | 50.71128 | 5.56156 | 5675 ft | 225 kts | 45° |
| 2026-05-05 15:23 | 50.72419 | 5.57664 | 5968 ft | 239 kts | 19° |
| 2026-05-05 15:24 | 50.74079 | 5.57755 | 6450 ft | 245 kts | 342° |
| 2026-05-05 15:24 | 50.75457 | 5.56235 | 7102 ft | 247 kts | 304° |
| 2026-05-05 15:24 | 50.76090 | 5.53742 | 7830 ft | 248 kts | 285° |
| 2026-05-05 15:24 | 50.76521 | 5.51078 | 8550 ft | 251 kts | 284° |
| 2026-05-05 15:25 | 50.76963 | 5.48387 | 9230 ft | 255 kts | 285° |
| 2026-05-05 15:25 | 50.77427 | 5.45656 | 9898 ft | 259 kts | 285° |
| 2026-05-05 15:25 | 50.77903 | 5.42892 | 10487 ft | 265 kts | 284° |
| 2026-05-05 15:25 | 50.78342 | 5.40003 | 10769 ft | 286 kts | 282° |
| 2026-05-05 15:26 | 50.78789 | 5.36814 | 10974 ft | 308 kts | 282° |
| 2026-05-05 15:26 | 50.79264 | 5.33395 | 11151 ft | 331 kts | 282° |
| 2026-05-05 15:26 | 50.79778 | 5.29712 | 11304 ft | 353 kts | 282° |
| 2026-05-05 15:26 | 50.80321 | 5.25856 | 11677 ft | 365 kts | 282° |
| 2026-05-05 15:27 | 50.80876 | 5.21938 | 12473 ft | 366 kts | 282° |
| 2026-05-05 15:27 | 50.81437 | 5.17965 | 13025 ft | 374 kts | 282° |
| 2026-05-05 15:27 | 50.82008 | 5.13922 | 13683 ft | 380 kts | 283° |
| 2026-05-05 15:27 | 50.82581 | 5.09826 | 14333 ft | 382 kts | 282° |
| 2026-05-05 15:28 | 50.83155 | 5.05695 | 14996 ft | 386 kts | 282° |
| 2026-05-05 15:28 | 50.83728 | 5.01558 | 15713 ft | 388 kts | 282° |
| 2026-05-05 15:28 | 50.84306 | 4.97366 | 16453 ft | 389 kts | 282° |
| 2026-05-05 15:28 | 50.84888 | 4.93146 | 17020 ft | 395 kts | 282° |
| 2026-05-05 15:29 | 50.85470 | 4.88911 | 17802 ft | 396 kts | 282° |
| 2026-05-05 15:29 | 50.86058 | 4.84620 | 18358 ft | 401 kts | 281° |
| 2026-05-05 15:29 | 50.86651 | 4.80282 | 18928 ft | 403 kts | 281° |
| 2026-05-05 15:29 | 50.87243 | 4.75939 | 19539 ft | 405 kts | 281° |
| 2026-05-05 15:30 | 50.87837 | 4.71574 | 19833 ft | 404 kts | 281° |
| 2026-05-05 15:30 | 50.88433 | 4.67177 | 19880 ft | 415 kts | 281° |
| 2026-05-05 15:30 | 50.89038 | 4.62704 | 19885 ft | 417 kts | 281° |
| 2026-05-05 15:30 | 50.89591 | 4.58188 | 19874 ft | 418 kts | 274° |
| 2026-05-05 15:31 | 50.89378 | 4.53641 | 19900 ft | 413 kts | 253° |
| 2026-05-05 15:31 | 50.88326 | 4.49507 | 19885 ft | 410 kts | 237° |
| 2026-05-05 15:31 | 50.86705 | 4.45807 | 19889 ft | 409 kts | 232° |
| 2026-05-05 15:31 | 50.85000 | 4.42179 | 19891 ft | 410 kts | 232° |
| 2026-05-05 15:32 | 50.83282 | 4.38569 | 19890 ft | 411 kts | 231° |
| 2026-05-05 15:32 | 50.81569 | 4.34953 | 19873 ft | 411 kts | 232° |
| 2026-05-05 15:32 | 50.79860 | 4.31315 | 19880 ft | 411 kts | 231° |
| 2026-05-05 15:32 | 50.78163 | 4.27681 | 19890 ft | 410 kts | 232° |
| 2026-05-05 15:33 | 50.76478 | 4.24060 | 19876 ft | 409 kts | 232° |
| 2026-05-05 15:33 | 50.74800 | 4.20451 | 19888 ft | 408 kts | 232° |
| 2026-05-05 15:33 | 50.73121 | 4.16843 | 19880 ft | 407 kts | 232° |
| 2026-05-05 15:33 | 50.71465 | 4.13289 | 19872 ft | 406 kts | 232° |
| 2026-05-05 15:34 | 50.69791 | 4.09703 | 19883 ft | 406 kts | 232° |
| 2026-05-05 15:34 | 50.68096 | 4.06074 | 19878 ft | 406 kts | 232° |
| 2026-05-05 15:34 | 50.66440 | 4.02534 | 19864 ft | 406 kts | 232° |
| 2026-05-05 15:34 | 50.64761 | 3.98949 | 19874 ft | 406 kts | 232° |
| 2026-05-05 15:35 | 50.63080 | 3.95366 | 19875 ft | 406 kts | 232° |
| 2026-05-05 15:35 | 50.61333 | 3.91880 | 19860 ft | 405 kts | 223° |
| 2026-05-05 15:35 | 50.59035 | 3.89386 | 19879 ft | 402 kts | 203° |
| 2026-05-05 15:35 | 50.56363 | 3.88238 | 19877 ft | 400 kts | 185° |
| 2026-05-05 15:36 | 50.53597 | 3.88374 | 19882 ft | 399 kts | 171° |
| 2026-05-05 15:36 | 50.50954 | 3.89669 | 19863 ft | 399 kts | 154° |
| 2026-05-05 15:36 | 50.48568 | 3.91893 | 19882 ft | 400 kts | 148° |
| 2026-05-05 15:36 | 50.46232 | 3.94276 | 19880 ft | 401 kts | 148° |
| 2026-05-05 15:37 | 50.43900 | 3.96671 | 19855 ft | 401 kts | 148° |
| 2026-05-05 15:37 | 50.41563 | 3.99042 | 19853 ft | 400 kts | 148° |
| 2026-05-05 15:37 | 50.39219 | 4.01384 | 19858 ft | 399 kts | 149° |
| 2026-05-05 15:37 | 50.36869 | 4.03707 | 19857 ft | 399 kts | 149° |
| 2026-05-05 15:38 | 50.34525 | 4.06008 | 19860 ft | 398 kts | 150° |
| 2026-05-05 15:38 | 50.32042 | 4.07899 | 19853 ft | 397 kts | 160° |
| 2026-05-05 15:38 | 50.29393 | 4.09108 | 19857 ft | 396 kts | 168° |
| 2026-05-05 15:38 | 50.26656 | 4.09646 | 19863 ft | 396 kts | 176° |
| 2026-05-05 15:39 | 50.23903 | 4.09890 | 19857 ft | 397 kts | 176° |
| 2026-05-05 15:39 | 50.21148 | 4.10135 | 19855 ft | 397 kts | 176° |
| 2026-05-05 15:39 | 50.18394 | 4.10410 | 19858 ft | 397 kts | 176° |
| 2026-05-05 15:39 | 50.15631 | 4.10704 | 19848 ft | 397 kts | 176° |
| 2026-05-05 15:40 | 50.12905 | 4.10863 | 19847 ft | 397 kts | 180° |
| 2026-05-05 15:40 | 50.10142 | 4.10713 | 19861 ft | 397 kts | 182° |
| 2026-05-05 15:40 | 50.07381 | 4.10449 | 19848 ft | 398 kts | 183° |
| 2026-05-05 15:40 | 50.04619 | 4.10167 | 19848 ft | 397 kts | 183° |
| 2026-05-05 15:41 | 50.01862 | 4.09901 | 19848 ft | 397 kts | 182° |
| 2026-05-05 15:41 | 49.99109 | 4.09658 | 19846 ft | 396 kts | 182° |
| 2026-05-05 15:41 | 49.96353 | 4.09434 | 19839 ft | 396 kts | 182° |
| 2026-05-05 15:41 | 49.93599 | 4.09221 | 19836 ft | 396 kts | 182° |
| 2026-05-05 15:42 | 49.90840 | 4.09015 | 19835 ft | 396 kts | 182° |
| 2026-05-05 15:42 | 49.88086 | 4.08811 | 19834 ft | 396 kts | 181° |
| 2026-05-05 15:42 | 49.85327 | 4.08608 | 19834 ft | 396 kts | 181° |
| 2026-05-05 15:42 | 49.82576 | 4.08405 | 19829 ft | 395 kts | 181° |
| 2026-05-05 15:43 | 49.79882 | 4.08207 | 19824 ft | 395 kts | 182° |
| 2026-05-05 15:43 | 49.77217 | 4.08011 | 19827 ft | 396 kts | 181° |
| 2026-05-05 15:43 | 49.74396 | 4.07803 | 19825 ft | 395 kts | 181° |
| 2026-05-05 15:43 | 49.71659 | 4.07601 | 19811 ft | 388 kts | 181° |
| 2026-05-05 15:44 | 49.69023 | 4.07407 | 19802 ft | 371 kts | 181° |
| 2026-05-05 15:44 | 49.66478 | 4.07220 | 19542 ft | 364 kts | 182° |
| 2026-05-05 15:44 | 49.63965 | 4.07036 | 19194 ft | 361 kts | 182° |
| 2026-05-05 15:44 | 49.61498 | 4.06476 | 18745 ft | 360 kts | 198° |
| 2026-05-05 15:45 | 49.59302 | 4.04653 | 18363 ft | 359 kts | 216° |
| 2026-05-05 15:45 | 49.57567 | 4.01924 | 17927 ft | 359 kts | 232° |
| 2026-05-05 15:45 | 49.56202 | 3.98765 | 17475 ft | 356 kts | 235° |
| 2026-05-05 15:45 | 49.54888 | 3.95552 | 17027 ft | 354 kts | 236° |
| 2026-05-05 15:46 | 49.53581 | 3.92349 | 16581 ft | 352 kts | 236° |
| 2026-05-05 15:46 | 49.52280 | 3.89199 | 16349 ft | 348 kts | 235° |
| 2026-05-05 15:46 | 49.50961 | 3.86049 | 16100 ft | 352 kts | 235° |
| 2026-05-05 15:46 | 49.49619 | 3.82872 | 15876 ft | 357 kts | 235° |
| 2026-05-05 15:47 | 49.48261 | 3.79667 | 15597 ft | 357 kts | 235° |
| 2026-05-05 15:47 | 49.47413 | 3.77450 | 15420 ft | 356 kts | 243° |
| 2026-05-05 15:47 | 49.46543 | 3.72609 | 15106 ft | 355 kts | 255° |
| 2026-05-05 15:47 | 49.45968 | 3.68918 | 14861 ft | 352 kts | 254° |
| 2026-05-05 15:48 | 49.45367 | 3.65277 | 14610 ft | 350 kts | 253° |
| 2026-05-05 15:48 | 49.44758 | 3.61671 | 14370 ft | 348 kts | 253° |
| 2026-05-05 15:48 | 49.44148 | 3.58087 | 14128 ft | 347 kts | 253° |
| 2026-05-05 15:48 | 49.43534 | 3.54482 | 13901 ft | 353 kts | 253° |
| 2026-05-05 15:49 | 49.42904 | 3.50791 | 13660 ft | 359 kts | 253° |
| 2026-05-05 15:49 | 49.42271 | 3.47077 | 13429 ft | 359 kts | 253° |
| 2026-05-05 15:49 | 49.41701 | 3.43362 | 13143 ft | 356 kts | 259° |
| 2026-05-05 15:49 | 49.41372 | 3.39598 | 12886 ft | 354 kts | 263° |
| 2026-05-05 15:50 | 49.41140 | 3.35848 | 12620 ft | 353 kts | 264° |
| 2026-05-05 15:50 | 49.40929 | 3.32096 | 12368 ft | 352 kts | 264° |
| 2026-05-05 15:50 | 49.40717 | 3.28451 | 12122 ft | 352 kts | 264° |
| 2026-05-05 15:50 | 49.40486 | 3.24705 | 11881 ft | 352 kts | 263° |
| 2026-05-05 15:51 | 49.40245 | 3.20967 | 11626 ft | 353 kts | 263° |
| 2026-05-05 15:51 | 49.39995 | 3.17233 | 11345 ft | 350 kts | 263° |
| 2026-05-05 15:51 | 49.39740 | 3.13526 | 11094 ft | 347 kts | 263° |
| 2026-05-05 15:51 | 49.39483 | 3.09855 | 10845 ft | 346 kts | 265° |
| 2026-05-05 15:52 | 49.39224 | 3.06197 | 10600 ft | 345 kts | 265° |
| 2026-05-05 15:52 | 49.38964 | 3.02544 | 10360 ft | 344 kts | 265° |
| 2026-05-05 15:52 | 49.38704 | 2.98908 | 10137 ft | 343 kts | 265° |
| 2026-05-05 15:52 | 49.38438 | 2.95261 | 9921 ft | 344 kts | 265° |
| 2026-05-05 15:53 | 49.38180 | 2.91702 | 9689 ft | 345 kts | 265° |
| 2026-05-05 15:53 | 49.37921 | 2.88047 | 9419 ft | 343 kts | 265° |
| 2026-05-05 15:53 | 49.37660 | 2.84443 | 9163 ft | 337 kts | 265° |
| 2026-05-05 15:53 | 49.37403 | 2.80899 | 8898 ft | 331 kts | 265° |
| 2026-05-05 15:54 | 49.37146 | 2.77451 | 8811 ft | 320 kts | 265° |
| 2026-05-05 15:54 | 49.36897 | 2.74145 | 8796 ft | 305 kts | 265° |
| 2026-05-05 15:54 | 49.36660 | 2.70993 | 8803 ft | 290 kts | 265° |
| 2026-05-05 15:54 | 49.36434 | 2.67984 | 8801 ft | 279 kts | 265° |
| 2026-05-05 15:55 | 49.36245 | 2.65454 | 8816 ft | 276 kts | 265° |
| 2026-05-05 15:55 | 49.36024 | 2.62495 | 8840 ft | 283 kts | 265° |
| 2026-05-05 15:55 | 49.35797 | 2.59467 | 8843 ft | 287 kts | 264° |
| 2026-05-05 15:55 | 49.35571 | 2.56474 | 8834 ft | 285 kts | 264° |
| 2026-05-05 15:56 | 49.35350 | 2.53549 | 8834 ft | 283 kts | 264° |
| 2026-05-05 15:56 | 49.35122 | 2.50560 | 8828 ft | 282 kts | 264° |
| 2026-05-05 15:56 | 49.34895 | 2.47575 | 8837 ft | 282 kts | 265° |
| 2026-05-05 15:56 | 49.34666 | 2.44587 | 8847 ft | 282 kts | 264° |
| 2026-05-05 15:57 | 49.34435 | 2.41581 | 8855 ft | 284 kts | 264° |
| 2026-05-05 15:57 | 49.34203 | 2.38573 | 8853 ft | 285 kts | 264° |
| 2026-05-05 15:57 | 49.33968 | 2.35540 | 8854 ft | 286 kts | 264° |
| 2026-05-05 15:57 | 49.33733 | 2.32506 | 8855 ft | 287 kts | 264° |
| 2026-05-05 15:58 | 49.33499 | 2.29512 | 8847 ft | 287 kts | 264° |
| 2026-05-05 15:58 | 49.33261 | 2.26465 | 8862 ft | 287 kts | 264° |
| 2026-05-05 15:58 | 49.33021 | 2.23420 | 8847 ft | 288 kts | 264° |
| 2026-05-05 15:58 | 49.32782 | 2.20381 | 8840 ft | 288 kts | 264° |
| 2026-05-05 15:59 | 49.32541 | 2.17337 | 8852 ft | 287 kts | 264° |
| 2026-05-05 15:59 | 49.32300 | 2.14297 | 8855 ft | 287 kts | 264° |
| 2026-05-05 15:59 | 49.32059 | 2.11264 | 8855 ft | 287 kts | 264° |
| 2026-05-05 15:59 | 49.31817 | 2.08227 | 8846 ft | 287 kts | 264° |
| 2026-05-05 16:00 | 49.31574 | 2.05192 | 8843 ft | 286 kts | 264° |
| 2026-05-05 16:00 | 49.31330 | 2.02167 | 8855 ft | 286 kts | 264° |
| 2026-05-05 16:00 | 49.31087 | 1.99146 | 8850 ft | 286 kts | 264° |
| 2026-05-05 16:00 | 49.30843 | 1.96124 | 8856 ft | 286 kts | 264° |
| 2026-05-05 16:01 | 49.30597 | 1.93082 | 8868 ft | 295 kts | 264° |
| 2026-05-05 16:01 | 49.30338 | 1.89887 | 8867 ft | 309 kts | 264° |
| 2026-05-05 16:01 | 49.30073 | 1.86661 | 8835 ft | 301 kts | 264° |
| 2026-05-05 16:01 | 49.29689 | 1.83567 | 8830 ft | 291 kts | 248° |
| 2026-05-05 16:02 | 49.28572 | 1.81055 | 8856 ft | 285 kts | 221° |
| 2026-05-05 16:02 | 49.26920 | 1.79536 | 8688 ft | 272 kts | 196° |
| 2026-05-05 16:02 | 49.25082 | 1.79134 | 8531 ft | 268 kts | 176° |
| 2026-05-05 16:02 | 49.23268 | 1.79669 | 8350 ft | 272 kts | 157° |
| 2026-05-05 16:03 | 49.21526 | 1.80817 | 8171 ft | 274 kts | 153° |
| 2026-05-05 16:03 | 49.19799 | 1.82010 | 7992 ft | 271 kts | 153° |
| 2026-05-05 16:03 | 49.18077 | 1.83189 | 7802 ft | 270 kts | 154° |
| 2026-05-05 16:03 | 49.16357 | 1.84336 | 7622 ft | 269 kts | 158° |
| 2026-05-05 16:04 | 49.14548 | 1.85074 | 7451 ft | 270 kts | 166° |
| 2026-05-05 16:04 | 49.12708 | 1.85663 | 7268 ft | 270 kts | 166° |
| 2026-05-05 16:04 | 49.10870 | 1.86268 | 7097 ft | 270 kts | 165° |
| 2026-05-05 16:04 | 49.09035 | 1.86895 | 6928 ft | 270 kts | 165° |
| 2026-05-05 16:05 | 49.07251 | 1.87750 | 6724 ft | 268 kts | 147° |
| 2026-05-05 16:05 | 49.05954 | 1.89673 | 6568 ft | 262 kts | 122° |
| 2026-05-05 16:05 | 49.05001 | 1.92031 | 6409 ft | 261 kts | 117° |
| 2026-05-05 16:05 | 49.04121 | 1.94463 | 6251 ft | 262 kts | 117° |
| 2026-05-05 16:06 | 49.03243 | 1.96911 | 6070 ft | 264 kts | 117° |
| 2026-05-05 16:06 | 49.02353 | 1.99372 | 5904 ft | 265 kts | 117° |
| 2026-05-05 16:06 | 49.01457 | 2.01818 | 5718 ft | 264 kts | 116° |
| 2026-05-05 16:06 | 49.00559 | 2.04251 | 5571 ft | 262 kts | 117° |
| 2026-05-05 16:07 | 48.99587 | 2.06587 | 5412 ft | 261 kts | 121° |
| 2026-05-05 16:07 | 48.98707 | 2.08875 | 5164 ft | 246 kts | 112° |
| 2026-05-05 16:07 | 48.97979 | 2.11147 | 4995 ft | 231 kts | 114° |
| 2026-05-05 16:07 | 48.97340 | 2.13415 | 4831 ft | 236 kts | 107° |
| 2026-05-05 16:08 | 48.96783 | 2.15771 | 4655 ft | 236 kts | 101° |
| 2026-05-05 16:08 | 48.96787 | 2.18200 | 4421 ft | 226 kts | 72° |
| 2026-05-05 16:08 | 48.97169 | 2.20488 | 4273 ft | 221 kts | 76° |
| 2026-05-05 16:08 | 48.97457 | 2.22766 | 4091 ft | 220 kts | 78° |
| 2026-05-05 16:09 | 48.97654 | 2.25075 | 4019 ft | 216 kts | 81° |
| 2026-05-05 16:09 | 48.97783 | 2.27296 | 3988 ft | 205 kts | 82° |
| 2026-05-05 16:09 | 48.97894 | 2.29463 | 3877 ft | 207 kts | 82° |
| 2026-05-05 16:09 | 48.98004 | 2.31654 | 3603 ft | 205 kts | 82° |
| 2026-05-05 16:10 | 48.98075 | 2.33070 | 3444 ft | 199 kts | 82° |
| 2026-05-05 16:10 | 48.98177 | 2.35119 | 3174 ft | 191 kts | 82° |
| 2026-05-05 16:10 | 48.98279 | 2.37125 | 2947 ft | 189 kts | 82° |
| 2026-05-05 16:10 | 48.98468 | 2.39114 | 2653 ft | 188 kts | 79° |
| 2026-05-05 16:11 | 48.98516 | 2.41062 | 2395 ft | 179 kts | 83° |
| 2026-05-05 16:11 | 48.98767 | 2.46605 | 1737 ft | 164 kts | 80° |
| 2026-05-05 16:12 | 48.98854 | 2.48281 | 1473 ft | 152 kts | 79° |
| 2026-05-05 16:12 | 48.99020 | 2.51421 | 1052 ft | 147 kts | 82° |
| 2026-05-05 16:13 | 48.99264 | 2.56048 | 460 ft | 146 kts | 81° |
| 2026-05-05 16:13 | 48.99349 | 2.57562 | 351 ft | 133 kts | 79° |
| 2026-05-05 16:13 | 48.99405 | 2.58587 | 352 ft | 70 kts | 86° |
| 2026-05-05 16:14 | 48.99548 | 2.59517 | 359 ft | 25 kts | 65° |
| 2026-05-05 16:14 | 48.99671 | 2.59944 | 353 ft | 15 kts | 41° |
| 2026-05-05 16:15 | 48.99861 | 2.59963 | 355 ft | 13 kts | 18° |
| 2026-05-05 16:15 | 49.00011 | 2.60039 | 356 ft | 13 kts | 323° |
| 2026-05-05 16:16 | 49.00093 | 2.59843 | 353 ft | 12 kts | 266° |
| 2026-05-05 16:16 | 49.00080 | 2.59593 | 353 ft | 12 kts | 266° |
| 2026-05-05 16:17 | 49.00066 | 2.59307 | 353 ft | 15 kts | 265° |
| 2026-05-05 16:17 | 49.00057 | 2.59143 | 353 ft | 17 kts | 265° |
| 2026-05-05 16:18 | 49.00033 | 2.58739 | 353 ft | 22 kts | 264° |
| 2026-05-05 16:18 | 49.00021 | 2.58499 | 353 ft | 24 kts | 266° |
| 2026-05-05 16:18 | 48.99991 | 2.57939 | 359 ft | 29 kts | 265° |
| 2026-05-05 16:19 | 48.99981 | 2.57721 | 353 ft | 6 kts | 266° |
| 2026-05-05 16:19 | 48.99976 | 2.57640 | 353 ft | 9 kts | 265° |
| 2026-05-05 16:19 | 48.99969 | 2.57514 | 353 ft | 6 kts | 265° |
| 2026-05-05 16:20 | 48.99958 | 2.57289 | 358 ft | 14 kts | 265° |
| 2026-05-05 16:20 | 48.99937 | 2.56921 | 353 ft | 19 kts | 265° |
| 2026-05-05 16:21 | 48.99912 | 2.56454 | 359 ft | 24 kts | 265° |
| 2026-05-05 16:22 | 48.99911 | 2.55812 | 357 ft | 17 kts | 284° |
| 2026-05-05 16:22 | 48.99924 | 2.55619 | 356 ft | 13 kts | 227° |
| 2026-05-05 16:23 | 48.99888 | 2.55309 | 353 ft | 18 kts | 266° |
| 2026-05-05 16:23 | 48.99876 | 2.55098 | 355 ft | 22 kts | 262° |
| 2026-05-05 16:23 | 48.99854 | 2.54712 | 356 ft | 19 kts | 264° |
| 2026-05-05 16:24 | 48.99844 | 2.54499 | 361 ft | 22 kts | 267° |
| 2026-05-05 16:24 | 48.99832 | 2.54257 | 353 ft | 24 kts | 266° |
| 2026-05-05 16:24 | 48.99788 | 2.53813 | 357 ft | 21 kts | 235° |
| 2026-05-05 16:25 | 48.99667 | 2.53649 | 362 ft | 24 kts | 220° |
| 2026-05-05 16:25 | 48.99441 | 2.53464 | 355 ft | 19 kts | 179° |
| 2026-05-05 16:25 | 48.99341 | 2.53479 | 361 ft | 11 kts | 166° |
| 2026-05-05 16:26 | 48.99317 | 2.53681 | 359 ft | 6 kts | 85° |
| 2026-05-05 16:26 | 48.99284 | 2.53727 | 353 ft | 6 kts | 158° |
| 2026-05-05 16:27 | 48.99256 | 2.53743 | 353 ft | 4 kts | 159° |
| 2026-05-05 16:27 | 48.99236 | 2.53755 | 362 ft | 3 kts | 159° |
| 2026-05-05 16:27 | 48.99224 | 2.53762 | 358 ft | 1 kts | 159° |